createdAt,value
2023-03-12T00:00:23.570Z,80.45
2023-03-12T00:02:51.460Z,80.72
2023-03-12T00:05:19.490Z,80.18
2023-03-12T00:07:47.416Z,80.63
2023-03-12T00:10:15.744Z,80.41
2023-03-12T00:12:43.492Z,80.55
2023-03-12T00:15:12.091Z,80.87
2023-03-12T00:17:39.847Z,80.70
2023-03-12T00:20:08.301Z,81.03
2023-03-12T00:22:36.185Z,81.00
2023-03-12T00:25:12.555Z,81.12
2023-03-12T00:27:40.969Z,81.03
2023-03-12T00:30:09.954Z,80.97
2023-03-12T00:32:39.081Z,81.19
2023-03-12T00:35:07.647Z,81.22
2023-03-12T00:37:35.597Z,81.37
2023-03-12T00:40:03.584Z,81.20
2023-03-12T00:42:31.302Z,81.47
2023-03-12T00:44:59.097Z,81.36
2023-03-12T00:47:26.901Z,81.10
2023-03-12T00:49:54.562Z,81.21
2023-03-12T00:52:22.244Z,81.19
2023-03-12T00:54:49.945Z,81.22
2023-03-12T00:57:17.580Z,81.27
2023-03-12T00:59:45.378Z,81.14
2023-03-12T01:02:13.114Z,81.20
2023-03-12T01:04:40.766Z,80.87
2023-03-12T01:07:08.464Z,80.63
2023-03-12T01:09:36.166Z,80.74
2023-03-12T01:12:04.131Z,80.64
2023-03-12T01:14:32.115Z,80.58
2023-03-12T01:16:59.816Z,80.35
2023-03-12T01:19:27.866Z,80.74
2023-03-12T01:21:55.495Z,80.80
2023-03-12T01:24:23.160Z,80.94
2023-03-12T01:26:50.827Z,80.92
2023-03-12T01:29:18.654Z,81.02
2023-03-12T01:31:46.433Z,81.21
2023-03-12T01:34:14.191Z,81.33
2023-03-12T01:36:42.246Z,81.37
2023-03-12T01:39:09.917Z,81.35
2023-03-12T01:41:38.061Z,81.46
2023-03-12T01:44:07.085Z,81.31
2023-03-12T01:46:44.254Z,81.52
2023-03-12T01:49:19.545Z,81.50
2023-03-12T01:52:08.400Z,81.30
2023-03-12T01:54:44.584Z,81.19
2023-03-12T01:57:41.923Z,80.99
2023-03-12T02:00:16.747Z,81.15
2023-03-12T02:02:45.846Z,80.83
2023-03-12T02:05:33.721Z,80.92
2023-03-12T02:08:01.602Z,80.49
2023-03-12T02:10:29.373Z,80.94
2023-03-12T02:12:57.255Z,80.94
2023-03-12T02:15:25.142Z,80.35
2023-03-12T02:17:53.101Z,80.61
2023-03-12T02:20:33.545Z,80.73
2023-03-12T02:23:10.292Z,80.11
2023-03-12T02:25:39.702Z,80.53
2023-03-12T02:28:10.471Z,80.54
2023-03-12T02:30:40.126Z,80.57
2023-03-12T02:33:09.983Z,80.53
2023-03-12T02:35:38.469Z,80.48
2023-03-12T02:38:41.014Z,80.27
2023-03-12T02:41:14.168Z,80.41
2023-03-12T02:43:46.192Z,80.82
2023-03-12T02:46:15.054Z,80.84
2023-03-12T02:48:43.090Z,80.97
2023-03-12T02:51:11.031Z,80.73
2023-03-12T02:53:38.745Z,80.75
2023-03-12T02:56:06.836Z,80.81
2023-03-12T02:58:34.745Z,80.34
2023-03-12T03:01:02.518Z,80.32
2023-03-12T03:03:30.257Z,80.13
2023-03-12T03:05:58.219Z,80.25
2023-03-12T03:08:25.953Z,80.26
2023-03-12T03:10:53.997Z,80.36
2023-03-12T03:13:21.694Z,80.41
2023-03-12T03:15:49.389Z,80.26
2023-03-12T03:18:17.084Z,80.40
2023-03-12T03:20:45.772Z,80.44
2023-03-12T03:23:13.469Z,80.61
2023-03-12T03:25:41.141Z,80.60
2023-03-12T03:28:08.878Z,80.43
2023-03-12T03:30:36.851Z,80.41
2023-03-12T03:33:04.650Z,80.65
2023-03-12T03:35:32.343Z,80.56
2023-03-12T03:38:00.055Z,80.63
2023-03-12T03:40:27.708Z,80.50
2023-03-12T03:42:55.399Z,80.74
2023-03-12T03:45:23.075Z,80.69
2023-03-12T03:47:50.766Z,80.78
2023-03-12T03:50:18.760Z,80.68
2023-03-12T03:52:46.434Z,80.70
2023-03-12T03:55:14.100Z,80.92
2023-03-12T03:57:41.855Z,80.97
2023-03-12T04:00:11.101Z,81.01
2023-03-12T04:02:38.883Z,81.05
2023-03-12T04:05:06.911Z,81.22
2023-03-12T04:07:34.645Z,81.17
2023-03-12T04:10:02.475Z,81.15
2023-03-12T04:12:30.845Z,81.25
2023-03-12T04:14:58.471Z,81.27
2023-03-12T04:17:26.162Z,81.29
2023-03-12T04:19:53.919Z,81.49
2023-03-12T04:22:21.621Z,81.52
2023-03-12T04:24:49.293Z,81.68
2023-03-12T04:27:16.926Z,81.70
2023-03-12T04:29:44.686Z,81.98
2023-03-12T04:32:12.831Z,81.88
2023-03-12T04:34:40.443Z,81.95
2023-03-12T04:37:08.971Z,82.18
2023-03-12T04:39:36.586Z,82.43
2023-03-12T04:42:04.347Z,82.29
2023-03-12T04:44:32.116Z,82.45
2023-03-12T04:46:59.849Z,82.33
2023-03-12T04:49:27.594Z,82.51
2023-03-12T04:51:55.248Z,82.56
2023-03-12T04:54:23.665Z,82.61
2023-03-12T04:56:51.488Z,82.46
2023-03-12T04:59:19.156Z,82.73
2023-03-12T05:01:46.827Z,82.45
2023-03-12T05:04:14.665Z,82.54
2023-03-12T05:06:42.367Z,82.82
2023-03-12T05:09:10.194Z,82.95
2023-03-12T05:11:39.829Z,82.59
2023-03-12T05:14:07.662Z,82.59
2023-03-12T05:16:35.405Z,82.74
2023-03-12T05:19:03.561Z,82.75
2023-03-12T05:21:32.077Z,82.65
2023-03-12T05:24:00.453Z,82.55
2023-03-12T05:26:33.616Z,82.63
2023-03-12T05:29:03.047Z,82.67
2023-03-12T05:31:36.415Z,82.58
2023-03-12T05:34:05.535Z,82.52
2023-03-12T05:36:33.258Z,82.36
2023-03-12T05:39:01.044Z,82.30
2023-03-12T05:41:31.155Z,82.31
2023-03-12T05:43:59.273Z,82.25
2023-03-12T05:46:28.677Z,82.24
2023-03-12T05:48:56.588Z,82.15
2023-03-12T05:51:24.332Z,82.28
2023-03-12T05:53:52.225Z,82.33
2023-03-12T05:56:20.072Z,82.38
2023-03-12T05:58:50.661Z,82.30
2023-03-12T06:01:21.796Z,82.41
2023-03-12T06:03:49.909Z,82.10
2023-03-12T06:06:18.254Z,82.13
2023-03-12T06:08:46.929Z,82.32
2023-03-12T06:11:14.887Z,82.46
2023-03-12T06:13:42.674Z,82.48
2023-03-12T06:16:22.384Z,82.71
2023-03-12T06:18:50.694Z,82.82
2023-03-12T06:21:21.886Z,83.10
2023-03-12T06:23:50.533Z,83.19
2023-03-12T06:26:19.387Z,83.19
2023-03-12T06:28:48.834Z,83.16
2023-03-12T06:31:17.554Z,83.35
2023-03-12T06:33:45.360Z,83.48
2023-03-12T06:36:13.476Z,83.77
2023-03-12T06:38:41.700Z,83.89
2023-03-12T06:41:11.212Z,84.00
2023-03-12T06:43:40.726Z,84.01
2023-03-12T06:46:10.825Z,84.04
2023-03-12T06:48:42.227Z,84.22
2023-03-12T06:51:11.541Z,84.46
2023-03-12T06:53:42.189Z,84.36
2023-03-12T06:56:11.092Z,84.28
2023-03-12T06:58:38.815Z,84.16
2023-03-12T07:01:06.641Z,84.29
2023-03-12T07:03:34.615Z,84.24
2023-03-12T07:06:02.336Z,84.25
2023-03-12T07:08:33.053Z,84.39
2023-03-12T07:11:02.218Z,84.37
2023-03-12T07:13:30.649Z,84.79
2023-03-12T07:15:58.403Z,85.12
2023-03-12T07:18:26.364Z,85.38
2023-03-12T07:20:54.824Z,85.29
2023-03-12T07:23:23.250Z,85.31
2023-03-12T07:25:51.377Z,85.52
2023-03-12T07:28:19.979Z,85.77
2023-03-12T07:30:54.140Z,85.85
2023-03-12T07:33:23.080Z,85.79
2023-03-12T07:35:51.946Z,86.17
2023-03-12T07:38:20.214Z,86.15
2023-03-12T07:40:58.892Z,86.20
2023-03-12T07:43:26.735Z,85.93
2023-03-12T07:45:54.458Z,86.60
2023-03-12T07:48:22.458Z,86.44
2023-03-12T07:50:50.839Z,86.22
2023-03-12T07:53:18.880Z,86.01
2023-03-12T07:55:48.291Z,85.73
2023-03-12T07:58:17.516Z,85.86
2023-03-12T08:00:46.583Z,85.67
2023-03-12T08:03:14.623Z,85.50
2023-03-12T08:05:42.680Z,85.52
2023-03-12T08:08:10.600Z,85.59
2023-03-12T08:10:38.830Z,85.55
2023-03-12T08:13:06.584Z,85.80
2023-03-12T08:15:34.643Z,85.74
2023-03-12T08:18:02.539Z,85.84
2023-03-12T08:20:31.360Z,86.00
2023-03-12T08:22:59.061Z,86.08
2023-03-12T08:25:27.036Z,85.91
2023-03-12T08:27:54.863Z,85.96
2023-03-12T08:30:22.622Z,86.04
2023-03-12T08:32:50.472Z,85.86
2023-03-12T08:35:18.177Z,86.07
2023-03-12T08:37:45.879Z,85.73
2023-03-12T08:40:14.301Z,85.95
2023-03-12T08:42:43.440Z,86.24
2023-03-12T08:45:12.750Z,86.87
2023-03-12T08:47:42.711Z,87.19
2023-03-12T08:50:15.208Z,87.38
2023-03-12T08:52:43.311Z,87.67
2023-03-12T08:55:14.110Z,85.09
2023-03-12T08:57:42.362Z,84.30
2023-03-12T09:00:16.077Z,84.83
2023-03-12T09:02:47.691Z,84.56
2023-03-12T09:05:15.447Z,84.71
2023-03-12T09:07:43.441Z,84.81
2023-03-12T09:10:11.620Z,84.55
2023-03-12T09:12:39.365Z,84.63
2023-03-12T09:15:07.912Z,85.17
2023-03-12T09:17:35.735Z,85.57
2023-03-12T09:20:03.420Z,86.13
2023-03-12T09:22:31.802Z,86.25
2023-03-12T09:24:59.435Z,86.27
2023-03-12T09:27:27.165Z,86.68
2023-03-12T09:30:02.967Z,86.96
2023-03-12T09:32:30.807Z,87.09
2023-03-12T09:34:58.706Z,86.98
2023-03-12T09:37:26.513Z,86.98
2023-03-12T09:39:54.671Z,87.05
2023-03-12T09:42:54.647Z,86.97
2023-03-12T09:45:32.666Z,87.19
2023-03-12T09:48:03.298Z,86.76
2023-03-12T09:50:44.882Z,86.81
2023-03-12T09:53:28.487Z,87.02
2023-03-12T09:55:59.153Z,86.84
2023-03-12T09:58:30.842Z,86.63
2023-03-12T10:01:08.763Z,86.87
2023-03-12T10:03:57.509Z,86.82
2023-03-12T10:06:30.816Z,86.95
2023-03-12T10:09:01.330Z,86.69
2023-03-12T10:11:49.512Z,86.43
2023-03-12T10:14:38.586Z,86.10
2023-03-12T10:17:24.780Z,85.92
2023-03-12T10:20:11.488Z,86.28
2023-03-12T10:22:47.922Z,86.73
2023-03-12T10:25:48.562Z,87.20
2023-03-12T10:28:24.007Z,88.00
2023-03-12T10:30:58.096Z,87.74
2023-03-12T10:33:39.603Z,87.79
2023-03-12T10:36:42.787Z,87.83
2023-03-12T10:39:20.313Z,87.78
2023-03-12T10:41:49.963Z,87.82
2023-03-12T10:44:26.718Z,87.90
2023-03-12T10:47:26.768Z,88.01
2023-03-12T10:49:54.718Z,88.01
2023-03-12T10:52:24.518Z,88.19
2023-03-12T10:54:54.217Z,88.28
2023-03-12T10:57:22.320Z,88.65
2023-03-12T10:59:52.436Z,88.39
2023-03-12T11:02:34.608Z,88.50
2023-03-12T11:05:19.404Z,88.67
2023-03-12T11:07:47.453Z,88.32
2023-03-12T11:10:25.149Z,88.53
2023-03-12T11:13:02.847Z,88.58
2023-03-12T11:15:43.024Z,88.82
2023-03-12T11:18:19.795Z,89.18
2023-03-12T11:20:49.006Z,88.56
2023-03-12T11:23:30.170Z,88.25
2023-03-12T11:26:02.780Z,88.50
2023-03-12T11:28:42.998Z,88.67
2023-03-12T11:31:47.324Z,88.87
2023-03-12T11:34:27.510Z,88.98
2023-03-12T11:37:00.829Z,89.07
2023-03-12T11:39:52.984Z,89.42
2023-03-12T11:42:51.764Z,89.50
2023-03-12T11:45:33.922Z,89.43
2023-03-12T11:48:12.218Z,89.59
2023-03-12T11:50:58.786Z,89.13
2023-03-12T11:54:17.743Z,89.10
2023-03-12T11:56:52.986Z,89.21
2023-03-12T11:59:49.558Z,88.52
2023-03-12T12:02:40.461Z,88.36
2023-03-12T12:05:45.250Z,88.61
2023-03-12T12:08:21.593Z,88.20
2023-03-12T12:11:18.095Z,87.09
2023-03-12T12:13:58.153Z,86.26
2023-03-12T12:16:37.915Z,85.51
2023-03-12T12:19:21.368Z,84.41
2023-03-12T12:22:17.089Z,85.18
2023-03-12T12:25:03.590Z,84.89
2023-03-12T12:27:37.644Z,83.44
2023-03-12T12:30:11.544Z,82.58
2023-03-12T12:33:11.232Z,81.88
2023-03-12T12:35:44.231Z,80.69
2023-03-12T12:38:34.940Z,80.19
2023-03-12T12:41:17.843Z,81.20
2023-03-12T12:43:50.650Z,80.99
2023-03-12T12:46:22.389Z,79.09
2023-03-12T12:48:54.981Z,80.08
2023-03-12T12:51:31.102Z,78.60
2023-03-12T12:54:04.153Z,79.19
2023-03-12T12:56:49.908Z,78.16
2023-03-12T12:59:44.749Z,75.15
2023-03-12T13:02:21.496Z,75.35
2023-03-12T13:04:49.805Z,73.48
2023-03-12T13:07:17.641Z,70.61
2023-03-12T13:09:47.887Z,70.89
2023-03-12T13:12:26.204Z,69.93
2023-03-12T13:14:57.414Z,69.25
2023-03-12T13:17:57.213Z,67.42
2023-03-12T13:20:58.338Z,68.96
2023-03-12T13:23:50.850Z,69.09
2023-03-12T13:26:24.968Z,68.72
2023-03-12T13:29:11.397Z,69.39
2023-03-12T13:31:42.825Z,69.62
2023-03-12T13:34:19.364Z,69.40
2023-03-12T13:36:49.175Z,67.63
2023-03-12T13:39:16.828Z,67.21
2023-03-12T13:41:48.605Z,66.95
2023-03-12T13:44:28.398Z,68.03
2023-03-12T13:47:03.415Z,68.46
2023-03-12T13:49:44.166Z,67.80
2023-03-12T13:52:32.850Z,68.29
2023-03-12T13:55:09.171Z,67.78
2023-03-12T13:57:46.783Z,67.69
2023-03-12T14:00:30.558Z,66.64
2023-03-12T14:03:22.473Z,66.60
2023-03-12T14:05:56.337Z,67.42
2023-03-12T14:08:48.941Z,66.71
2023-03-12T14:11:26.031Z,66.39
2023-03-12T14:14:18.473Z,68.45
2023-03-12T14:16:52.368Z,69.24
2023-03-12T14:19:29.811Z,69.64
2023-03-12T14:22:01.371Z,69.57
2023-03-12T14:24:36.326Z,67.88
2023-03-12T14:27:06.971Z,68.13
2023-03-12T14:29:44.936Z,67.31
2023-03-12T14:32:20.119Z,68.12
2023-03-12T14:34:54.947Z,65.90
2023-03-12T14:37:25.353Z,66.16
2023-03-12T14:40:03.023Z,66.77
2023-03-12T14:42:36.320Z,65.42
2023-03-12T14:45:18.432Z,65.85
2023-03-12T14:47:48.783Z,66.66
2023-03-12T14:50:22.527Z,67.51
2023-03-12T14:52:50.285Z,68.03
2023-03-12T14:55:25.120Z,68.08
2023-03-12T14:58:18.271Z,67.94
2023-03-12T15:00:55.523Z,66.03
2023-03-12T15:03:23.282Z,66.73
2023-03-12T15:05:52.504Z,67.02
2023-03-12T15:08:20.894Z,67.63
2023-03-12T15:10:55.358Z,67.71
2023-03-12T15:13:24.657Z,66.28
2023-03-12T15:15:55.620Z,67.17
2023-03-12T15:18:33.633Z,67.65
2023-03-12T15:21:03.699Z,68.25
2023-03-12T15:23:34.674Z,68.66
2023-03-12T15:26:13.450Z,69.07
2023-03-12T15:28:41.587Z,69.30
2023-03-12T15:31:16.049Z,69.06
2023-03-12T15:33:45.405Z,68.38
2023-03-12T15:36:16.029Z,69.35
2023-03-12T15:38:50.193Z,69.80
2023-03-12T15:41:50.263Z,70.00
2023-03-12T15:44:26.669Z,70.22
2023-03-12T15:47:12.479Z,68.98
2023-03-12T15:49:40.880Z,67.00
2023-03-12T15:52:30.423Z,68.16
2023-03-12T15:55:22.652Z,66.96
2023-03-12T15:57:56.163Z,68.11
2023-03-12T16:00:29.979Z,68.59
2023-03-12T16:03:00.587Z,68.93
2023-03-12T16:05:34.393Z,69.43
2023-03-12T16:08:16.997Z,69.20
2023-03-12T16:10:45.376Z,69.66
2023-03-12T16:13:16.922Z,69.60
2023-03-12T16:15:47.744Z,69.32
2023-03-12T16:18:18.144Z,69.01
2023-03-12T16:20:47.386Z,69.59
2023-03-12T16:23:16.173Z,69.85
2023-03-12T16:25:46.316Z,70.21
2023-03-12T16:28:19.656Z,70.11
2023-03-12T16:30:47.556Z,70.60
2023-03-12T16:33:24.116Z,70.89
2023-03-12T16:35:52.247Z,71.24
2023-03-12T16:38:19.990Z,71.59
2023-03-12T16:40:51.043Z,71.95
2023-03-12T16:43:26.544Z,72.32
2023-03-12T16:45:55.596Z,72.74
2023-03-12T16:48:25.447Z,73.02
2023-03-12T16:50:56.726Z,73.29
2023-03-12T16:53:25.172Z,73.52
2023-03-12T16:56:02.012Z,73.81
2023-03-12T16:58:31.094Z,74.19
2023-03-12T17:01:00.172Z,74.34
2023-03-12T17:03:39.479Z,74.53
2023-03-12T17:06:08.514Z,74.70
2023-03-12T17:08:37.128Z,74.88
2023-03-12T17:11:24.027Z,75.12
2023-03-12T17:13:55.531Z,75.47
2023-03-12T17:16:24.325Z,75.69
2023-03-12T17:18:52.265Z,75.87
2023-03-12T17:21:21.200Z,76.15
2023-03-12T17:23:51.523Z,76.43
2023-03-12T17:26:20.060Z,76.58
2023-03-12T17:28:47.897Z,76.82
2023-03-12T17:31:15.648Z,77.12
2023-03-12T17:33:44.454Z,77.33
2023-03-12T17:36:12.323Z,77.60
2023-03-12T17:38:40.355Z,77.78
2023-03-12T17:41:23.444Z,77.97
2023-03-12T17:43:53.644Z,78.17
2023-03-12T17:46:21.471Z,78.42
2023-03-12T17:48:49.304Z,78.59
2023-03-12T17:51:17.031Z,78.80
2023-03-12T17:53:44.819Z,79.10
2023-03-12T17:56:19.001Z,79.31
2023-03-12T17:58:47.428Z,79.50
2023-03-12T18:01:16.051Z,79.64
2023-03-12T18:03:45.057Z,79.81
2023-03-12T18:06:13.428Z,79.87
2023-03-12T18:08:41.202Z,79.95
2023-03-12T18:11:08.931Z,80.04
2023-03-12T18:13:37.562Z,80.14
2023-03-12T18:16:06.984Z,80.27
2023-03-12T18:18:34.928Z,80.36
2023-03-12T18:21:02.629Z,80.45
2023-03-12T18:23:30.325Z,80.51
2023-03-12T18:25:58.040Z,80.60
2023-03-12T18:28:25.889Z,80.69
2023-03-12T18:30:54.774Z,80.77
2023-03-12T18:33:22.521Z,80.85
2023-03-12T18:35:51.570Z,80.91
2023-03-12T18:38:20.277Z,80.88
2023-03-12T18:40:48.007Z,81.06
2023-03-12T18:43:15.866Z,81.08
2023-03-12T18:45:45.129Z,81.15
2023-03-12T18:48:12.996Z,81.30
2023-03-12T18:50:40.772Z,81.35
2023-03-12T18:53:08.499Z,81.39
2023-03-12T18:55:36.203Z,81.46
2023-03-12T18:58:04.139Z,81.54
2023-03-12T19:00:31.916Z,81.65
2023-03-12T19:02:59.730Z,81.72
2023-03-12T19:05:27.417Z,81.79
2023-03-12T19:07:55.156Z,81.89
2023-03-12T19:10:22.840Z,81.93
2023-03-12T19:12:53.217Z,81.90
2023-03-12T19:15:23.365Z,82.13
2023-03-12T19:17:51.391Z,82.25
2023-03-12T19:20:19.464Z,82.46
2023-03-12T19:22:47.147Z,82.46
2023-03-12T19:25:15.378Z,82.69
2023-03-12T19:27:43.144Z,82.72
2023-03-12T19:30:11.654Z,82.85
2023-03-12T19:32:43.738Z,83.10
2023-03-12T19:35:13.783Z,83.16
2023-03-12T19:37:42.294Z,83.43
2023-03-12T19:40:11.931Z,83.78
2023-03-12T19:42:39.768Z,83.83
2023-03-12T19:45:08.166Z,84.00
2023-03-12T19:47:36.018Z,84.11
2023-03-12T19:50:04.151Z,84.33
2023-03-12T19:52:31.813Z,84.42
2023-03-12T19:55:04.803Z,84.50
2023-03-12T19:57:34.119Z,84.84
2023-03-12T20:00:01.900Z,84.88
2023-03-12T20:02:30.048Z,84.97
2023-03-12T20:04:57.818Z,85.31
2023-03-12T20:07:25.636Z,85.35
2023-03-12T20:09:53.559Z,85.29
2023-03-12T20:12:21.256Z,85.45
2023-03-12T20:14:49.003Z,85.41
2023-03-12T20:17:16.963Z,85.73
2023-03-12T20:19:44.753Z,85.77
2023-03-12T20:22:12.467Z,85.75
2023-03-12T20:24:40.158Z,85.91
2023-03-12T20:27:07.828Z,86.07
2023-03-12T20:29:35.541Z,86.27
2023-03-12T20:32:03.315Z,86.33
2023-03-12T20:34:30.974Z,86.28
2023-03-12T20:36:59.311Z,86.57
2023-03-12T20:39:27.104Z,86.64
2023-03-12T20:41:54.872Z,86.64
2023-03-12T20:44:22.711Z,86.97
2023-03-12T20:46:50.407Z,86.98
2023-03-12T20:49:18.164Z,87.35
2023-03-12T20:51:47.079Z,87.45
2023-03-12T20:54:14.851Z,87.45
2023-03-12T20:56:44.710Z,87.54
2023-03-12T20:59:13.635Z,87.75
2023-03-12T21:01:41.393Z,87.85
2023-03-12T21:04:09.110Z,87.90
2023-03-12T21:06:36.796Z,87.99
2023-03-12T21:09:04.719Z,88.03
2023-03-12T21:11:32.522Z,88.13
2023-03-12T21:14:00.384Z,88.29
2023-03-12T21:16:28.434Z,88.39
2023-03-12T21:18:57.522Z,88.57
2023-03-12T21:21:25.537Z,88.63
2023-03-12T21:23:54.082Z,88.88
2023-03-12T21:26:21.916Z,88.84
2023-03-12T21:28:50.042Z,88.96
2023-03-12T21:31:18.982Z,88.83
2023-03-12T21:33:46.909Z,89.03
2023-03-12T21:36:16.718Z,89.30
2023-03-12T21:38:44.598Z,89.16
2023-03-12T21:41:15.629Z,89.17
2023-03-12T21:43:44.427Z,89.04
2023-03-12T21:46:14.872Z,88.91
2023-03-12T21:48:45.911Z,88.95
2023-03-12T21:51:16.168Z,88.92
2023-03-12T21:53:44.203Z,88.79
2023-03-12T21:56:12.362Z,88.82
2023-03-12T21:58:40.412Z,88.85
2023-03-12T22:01:11.066Z,88.70
2023-03-12T22:03:40.119Z,88.60
2023-03-12T22:06:08.688Z,88.62
2023-03-12T22:08:37.062Z,88.52
2023-03-12T22:11:06.251Z,88.34
2023-03-12T22:13:34.079Z,88.18
2023-03-12T22:16:07.087Z,88.04
2023-03-12T22:18:38.607Z,88.02
2023-03-12T22:21:08.661Z,87.94
2023-03-12T22:23:37.668Z,87.76
2023-03-12T22:26:07.610Z,87.74
2023-03-12T22:28:35.871Z,86.61
2023-03-12T22:31:06.305Z,86.81
2023-03-12T22:33:36.923Z,87.15
2023-03-12T22:36:10.378Z,86.96
2023-03-12T22:38:39.444Z,87.13
2023-03-12T22:41:14.613Z,87.18
2023-03-12T22:43:42.546Z,87.17
2023-03-12T22:46:10.567Z,87.05
2023-03-12T22:48:38.570Z,87.10
2023-03-12T22:51:07.074Z,86.97
2023-03-12T22:53:35.369Z,86.97
2023-03-12T22:56:06.525Z,86.92
2023-03-12T22:58:35.087Z,86.92
2023-03-12T23:01:08.789Z,86.97
2023-03-12T23:03:38.656Z,86.82
2023-03-12T23:06:11.172Z,86.94
2023-03-12T23:08:39.394Z,86.78
2023-03-12T23:11:08.136Z,86.91
2023-03-12T23:13:38.634Z,86.65
2023-03-12T23:16:09.288Z,86.32
2023-03-12T23:18:37.737Z,86.36
2023-03-12T23:21:08.947Z,85.58
2023-03-12T23:23:38.566Z,84.44
2023-03-12T23:26:06.860Z,84.83
2023-03-12T23:28:34.599Z,84.81
2023-03-12T23:31:08.078Z,84.56
2023-03-12T23:33:36.343Z,84.23
2023-03-12T23:36:12.137Z,84.25
2023-03-12T23:38:40.129Z,84.01
2023-03-12T23:41:24.081Z,83.95
2023-03-12T23:43:53.088Z,83.74
2023-03-12T23:46:20.915Z,83.89
2023-03-12T23:48:49.061Z,83.96
2023-03-12T23:51:22.624Z,83.88
2023-03-12T23:53:52.187Z,83.83
2023-03-12T23:56:23.477Z,84.02
2023-03-12T23:58:52.490Z,83.86
